createdAt,value
2023-02-28T00:01:33.725Z,97416.00
2023-02-28T00:04:00.578Z,97417.00
2023-02-28T00:06:28.181Z,97418.00
2023-02-28T00:08:55.061Z,97420.00
2023-02-28T00:11:22.614Z,97428.00
2023-02-28T00:13:49.688Z,97427.00
2023-02-28T00:16:22.909Z,97404.00
2023-02-28T00:18:50.468Z,97408.00
2023-02-28T00:21:18.714Z,97406.00
2023-02-28T00:23:45.691Z,97408.00
2023-02-28T00:26:13.017Z,97409.00
2023-02-28T00:28:39.842Z,97404.00
2023-02-28T00:31:06.726Z,97412.00
2023-02-28T00:33:33.599Z,97404.00
2023-02-28T00:36:10.348Z,97418.00
2023-02-28T00:38:39.212Z,97414.00
2023-02-28T00:41:06.186Z,97408.00
2023-02-28T00:43:38.799Z,97411.00
2023-02-28T00:46:06.486Z,97407.00
2023-02-28T00:48:33.646Z,97402.00
2023-02-28T00:51:00.893Z,97404.00
2023-02-28T00:53:27.786Z,97415.00
2023-02-28T00:55:54.681Z,97402.00
2023-02-28T00:58:21.546Z,97406.00
2023-02-28T01:00:51.366Z,97412.00
2023-02-28T01:03:19.851Z,97416.00
2023-02-28T01:05:47.550Z,97412.00
2023-02-28T01:08:15.304Z,97412.00
2023-02-28T01:10:42.616Z,97409.00
2023-02-28T01:13:09.476Z,97413.00
2023-02-28T01:15:36.422Z,97404.00
2023-02-28T01:18:03.397Z,97411.00
2023-02-28T01:20:30.247Z,97396.00
2023-02-28T01:22:57.071Z,97407.00
2023-02-28T01:25:23.952Z,97399.00
2023-02-28T01:27:50.810Z,97400.00
2023-02-28T01:30:17.764Z,97400.00
2023-02-28T01:32:44.620Z,97394.00
2023-02-28T01:35:11.439Z,97396.00
2023-02-28T01:37:38.249Z,97388.00
2023-02-28T01:40:05.825Z,97401.00
2023-02-28T01:42:32.618Z,97401.00
2023-02-28T01:45:09.426Z,97404.00
2023-02-28T01:47:41.121Z,97401.00
2023-02-28T01:50:15.273Z,97390.00
2023-02-28T01:52:43.197Z,97381.00
2023-02-28T01:55:13.033Z,97382.00
2023-02-28T01:57:47.422Z,97389.00
2023-02-28T02:00:18.691Z,97389.00
2023-02-28T02:02:50.634Z,97388.00
2023-02-28T02:05:25.811Z,97380.00
2023-02-28T02:07:57.450Z,97379.00
2023-02-28T02:10:44.519Z,97380.00
2023-02-28T02:13:30.454Z,97379.00
2023-02-28T02:16:51.568Z,97373.00
2023-02-28T02:20:03.947Z,97371.00
2023-02-28T02:22:59.059Z,97374.00
2023-02-28T02:25:45.642Z,97375.00
2023-02-28T02:28:18.281Z,97373.00
2023-02-28T02:31:09.374Z,97380.00
2023-02-28T02:34:09.680Z,97374.00
2023-02-28T02:37:05.987Z,97375.00
2023-02-28T02:40:17.852Z,97374.00
2023-02-28T02:43:35.841Z,97379.00
2023-02-28T02:46:11.636Z,97386.00
2023-02-28T02:48:42.679Z,97369.00
2023-02-28T02:51:16.036Z,97374.00
2023-02-28T02:54:06.297Z,97366.00
2023-02-28T02:56:35.798Z,97372.00
2023-02-28T02:59:10.160Z,97371.00
2023-02-28T03:01:38.866Z,97368.00
2023-02-28T03:04:14.174Z,97359.00
2023-02-28T03:06:40.964Z,97353.00
2023-02-28T03:09:07.766Z,97355.00
2023-02-28T03:11:37.759Z,97359.00
2023-02-28T03:14:31.104Z,97357.00
2023-02-28T03:17:13.795Z,97356.00
2023-02-28T03:20:10.684Z,97356.00
2023-02-28T03:22:54.968Z,97353.00
2023-02-28T03:25:49.408Z,97354.00
2023-02-28T03:28:31.120Z,97359.00
2023-02-28T03:31:44.706Z,97355.00
2023-02-28T03:34:39.449Z,97360.00
2023-02-28T03:37:13.564Z,97358.00
2023-02-28T03:40:00.462Z,97357.00
2023-02-28T03:42:30.882Z,97354.00
2023-02-28T03:45:02.694Z,97357.00
2023-02-28T03:47:57.048Z,97355.00
2023-02-28T03:50:37.736Z,97345.00
2023-02-28T03:53:16.784Z,97350.00
2023-02-28T03:56:01.098Z,97353.00
2023-02-28T03:58:52.886Z,97355.00
2023-02-28T04:01:46.457Z,97358.00
2023-02-28T04:04:15.657Z,97355.00
2023-02-28T04:06:43.453Z,97368.00
2023-02-28T04:09:14.597Z,97363.00
2023-02-28T04:11:52.550Z,97360.00
2023-02-28T04:14:19.646Z,97360.00
2023-02-28T04:16:46.599Z,97351.00
2023-02-28T04:19:15.399Z,97363.00
2023-02-28T04:21:48.985Z,97353.00
2023-02-28T04:24:21.255Z,97365.00
2023-02-28T04:26:52.277Z,97362.00
2023-02-28T04:29:29.752Z,97367.00
2023-02-28T04:32:01.100Z,97366.00
2023-02-28T04:34:29.145Z,97373.00
2023-02-28T04:37:12.044Z,97375.00
2023-02-28T04:39:40.164Z,97370.00
2023-02-28T04:42:07.116Z,97363.00
2023-02-28T04:44:33.924Z,97361.00
2023-02-28T04:47:01.062Z,97366.00
2023-02-28T04:49:27.934Z,97368.00
2023-02-28T04:51:54.720Z,97367.00
2023-02-28T04:54:21.629Z,97377.00
2023-02-28T04:56:50.696Z,97372.00
2023-02-28T04:59:17.849Z,97371.00
2023-02-28T05:01:48.713Z,97372.00
2023-02-28T05:04:15.765Z,97379.00
2023-02-28T05:06:42.585Z,97381.00
2023-02-28T05:09:09.387Z,97387.00
2023-02-28T05:11:36.822Z,97380.00
2023-02-28T05:14:06.752Z,97384.00
2023-02-28T05:16:34.132Z,97370.00
2023-02-28T05:19:00.948Z,97379.00
2023-02-28T05:21:40.950Z,97382.00
2023-02-28T05:24:12.925Z,97379.00
2023-02-28T05:26:42.996Z,97385.00
2023-02-28T05:29:10.685Z,97383.00
2023-02-28T05:31:39.208Z,97387.00
2023-02-28T05:34:06.253Z,97387.00
2023-02-28T05:36:33.438Z,97387.00
2023-02-28T05:39:00.319Z,97386.00
2023-02-28T05:41:27.472Z,97398.00
2023-02-28T05:43:54.529Z,97392.00
2023-02-28T05:46:21.335Z,97386.00
2023-02-28T05:48:49.294Z,97404.00
2023-02-28T05:51:16.978Z,97410.00
2023-02-28T05:53:43.801Z,97401.00
2023-02-28T05:56:10.632Z,97405.00
2023-02-28T05:58:37.417Z,97408.00
2023-02-28T06:01:36.316Z,97413.00
2023-02-28T06:04:05.281Z,97406.00
2023-02-28T06:06:32.134Z,97404.00
2023-02-28T06:08:59.088Z,97404.00
2023-02-28T06:11:29.270Z,97414.00
2023-02-28T06:14:01.411Z,97414.00
2023-02-28T06:16:29.812Z,97414.00
2023-02-28T06:19:00.264Z,97419.00
2023-02-28T06:21:31.076Z,97409.00
2023-02-28T06:23:59.496Z,97417.00
2023-02-28T06:26:26.851Z,97424.00
2023-02-28T06:28:53.991Z,97427.00
2023-02-28T06:31:21.183Z,97435.00
2023-02-28T06:33:48.429Z,97434.00
2023-02-28T06:36:17.134Z,97434.00
2023-02-28T06:38:44.943Z,97435.00
2023-02-28T06:41:12.307Z,97441.00
2023-02-28T06:43:42.853Z,97442.00
2023-02-28T06:46:14.625Z,97428.00
2023-02-28T06:48:43.995Z,97437.00
2023-02-28T06:51:15.683Z,97431.00
2023-02-28T06:53:43.146Z,97441.00
2023-02-28T06:56:14.556Z,97445.00
2023-02-28T06:58:42.253Z,97439.00
2023-02-28T07:01:09.914Z,97435.00
2023-02-28T07:03:37.556Z,97438.00
2023-02-28T07:06:06.319Z,97443.00
2023-02-28T07:08:35.241Z,97438.00
2023-02-28T07:11:02.870Z,97446.00
2023-02-28T07:13:29.948Z,97448.00
2023-02-28T07:16:05.595Z,97448.00
2023-02-28T07:18:32.948Z,97446.00
2023-02-28T07:21:03.551Z,97445.00
2023-02-28T07:23:30.443Z,97443.00
2023-02-28T07:25:57.864Z,97441.00
2023-02-28T07:28:26.251Z,97445.00
2023-02-28T07:30:55.847Z,97446.00
2023-02-28T07:33:26.362Z,97445.00
2023-02-28T07:36:04.172Z,97452.00
2023-02-28T07:38:36.522Z,97445.00
2023-02-28T07:41:05.437Z,97446.00
2023-02-28T07:43:36.356Z,97437.00
2023-02-28T07:46:11.860Z,97444.00
2023-02-28T07:48:38.772Z,97438.00
2023-02-28T07:51:06.147Z,97453.00
2023-02-28T07:53:33.123Z,97445.00
2023-02-28T07:56:02.670Z,97442.00
2023-02-28T07:58:36.697Z,97441.00
2023-02-28T08:01:13.949Z,97453.00
2023-02-28T08:03:49.325Z,97454.00
2023-02-28T08:06:25.328Z,97447.00
2023-02-28T08:08:52.313Z,97454.00
2023-02-28T08:11:19.266Z,97452.00
2023-02-28T08:13:49.298Z,97452.00
2023-02-28T08:16:18.594Z,97458.00
2023-02-28T08:18:47.693Z,97451.00
2023-02-28T08:21:14.439Z,97447.00
2023-02-28T08:23:44.275Z,97456.00
2023-02-28T08:26:11.075Z,97461.00
2023-02-28T08:28:37.840Z,97454.00
2023-02-28T08:31:11.766Z,97462.00
2023-02-28T08:33:40.094Z,97469.00
2023-02-28T08:36:08.801Z,97466.00
2023-02-28T08:38:37.030Z,97465.00
2023-02-28T08:41:08.183Z,97473.00
2023-02-28T08:43:36.085Z,97466.00
2023-02-28T08:46:03.022Z,97472.00
2023-02-28T08:48:33.615Z,97472.00
2023-02-28T08:51:10.343Z,97475.00
2023-02-28T08:53:40.139Z,97486.00
2023-02-28T08:56:10.589Z,97476.00
2023-02-28T08:58:38.367Z,97486.00
2023-02-28T09:01:17.220Z,97490.00
2023-02-28T09:03:47.150Z,97479.00
2023-02-28T09:06:15.971Z,97477.00
2023-02-28T09:08:43.350Z,97475.00
2023-02-28T09:11:11.784Z,97472.00
2023-02-28T09:13:39.388Z,97476.00
2023-02-28T09:16:09.925Z,97472.00
2023-02-28T09:18:38.396Z,97478.00
2023-02-28T09:21:07.606Z,97478.00
2023-02-28T09:23:34.606Z,97474.00
2023-02-28T09:26:01.503Z,97483.00
2023-02-28T09:28:28.419Z,97479.00
2023-02-28T09:30:55.907Z,97485.00
2023-02-28T09:33:23.277Z,97490.00
2023-02-28T09:35:51.591Z,97482.00
2023-02-28T09:38:18.879Z,97486.00
2023-02-28T09:40:53.454Z,97486.00
2023-02-28T09:43:25.422Z,97487.00
2023-02-28T09:46:11.801Z,97500.00
2023-02-28T09:48:45.702Z,97495.00
2023-02-28T09:51:50.070Z,97500.00
2023-02-28T09:54:24.504Z,97496.00
2023-02-28T09:57:08.304Z,97501.00
2023-02-28T10:00:10.464Z,97500.00
2023-02-28T10:03:35.889Z,97498.00
2023-02-28T10:06:20.525Z,97502.00
2023-02-28T10:08:59.530Z,97490.00
2023-02-28T10:11:28.476Z,97493.00
2023-02-28T10:14:03.433Z,97493.00
2023-02-28T10:16:47.521Z,97494.00
2023-02-28T10:19:33.410Z,97492.00
2023-02-28T10:22:07.648Z,97487.00
2023-02-28T10:24:42.266Z,97490.00
2023-02-28T10:27:22.463Z,97495.00
2023-02-28T10:29:55.711Z,97500.00
2023-02-28T10:32:29.110Z,97498.00
2023-02-28T10:35:02.489Z,97501.00
2023-02-28T10:37:29.743Z,97509.00
2023-02-28T10:39:57.262Z,97510.00
2023-02-28T10:42:30.690Z,97519.00
2023-02-28T10:45:18.625Z,97499.00
2023-02-28T10:47:59.996Z,97503.00
2023-02-28T10:50:39.070Z,97515.00
2023-02-28T10:53:24.662Z,97521.00
2023-02-28T10:56:22.563Z,97513.00
2023-02-28T10:59:29.408Z,97505.00
2023-02-28T11:01:57.298Z,97522.00
2023-02-28T11:04:24.040Z,97514.00
2023-02-28T11:07:02.224Z,97510.00
2023-02-28T11:09:41.746Z,97514.00
2023-02-28T11:12:20.462Z,97526.00
2023-02-28T11:14:58.219Z,97518.00
2023-02-28T11:17:31.487Z,97509.00
2023-02-28T11:20:08.335Z,97509.00
2023-02-28T11:22:41.026Z,97513.00
2023-02-28T11:25:24.318Z,97520.00
2023-02-28T11:27:55.274Z,97510.00
2023-02-28T11:30:41.763Z,97515.00
2023-02-28T11:33:31.119Z,97516.00
2023-02-28T11:36:27.718Z,97516.00
2023-02-28T11:39:08.775Z,97509.00
2023-02-28T11:41:58.986Z,97510.00
2023-02-28T11:44:58.443Z,97514.00
2023-02-28T11:48:00.010Z,97521.00
2023-02-28T11:50:44.901Z,97514.00
2023-02-28T11:53:34.569Z,97518.00
2023-02-28T11:56:01.205Z,97513.00
2023-02-28T11:58:43.288Z,97516.00
2023-02-28T12:01:25.966Z,97512.00
2023-02-28T12:03:59.270Z,97514.00
2023-02-28T12:06:50.598Z,97503.00
2023-02-28T12:09:24.740Z,97515.00
2023-02-28T12:11:57.926Z,97496.00
2023-02-28T12:15:24.200Z,97490.00
2023-02-28T12:18:28.578Z,97490.00
2023-02-28T12:21:22.694Z,97502.00
2023-02-28T12:24:26.779Z,97492.00
2023-02-28T12:26:55.745Z,97492.00
2023-02-28T12:29:24.886Z,97493.00
2023-02-28T12:32:12.264Z,97487.00
2023-02-28T12:34:45.218Z,97484.00
2023-02-28T12:37:21.061Z,97475.00
2023-02-28T12:39:56.286Z,97487.00
2023-02-28T12:42:31.942Z,97489.00
2023-02-28T12:45:40.279Z,97494.00
2023-02-28T12:48:14.774Z,97477.00
2023-02-28T12:50:42.753Z,97481.00
2023-02-28T12:53:39.746Z,97477.00
2023-02-28T12:56:24.830Z,97478.00
2023-02-28T12:58:59.131Z,97473.00
2023-02-28T13:01:37.453Z,97486.00
2023-02-28T13:04:16.230Z,97481.00
2023-02-28T13:07:04.905Z,97483.00
2023-02-28T13:09:31.863Z,97489.00
2023-02-28T13:11:59.772Z,97485.00
2023-02-28T13:14:37.392Z,97481.00
2023-02-28T13:17:10.163Z,97479.00
2023-02-28T13:19:49.578Z,97485.00
2023-02-28T13:22:27.212Z,97489.00
2023-02-28T13:24:58.158Z,97482.00
2023-02-28T13:27:35.710Z,97489.00
2023-02-28T13:30:41.654Z,97480.00
2023-02-28T13:33:39.751Z,97471.00
2023-02-28T13:36:16.270Z,97470.00
2023-02-28T13:39:02.873Z,97484.00
2023-02-28T13:41:32.640Z,97475.00
2023-02-28T13:44:24.607Z,97473.00
2023-02-28T13:46:51.742Z,97472.00
2023-02-28T13:49:30.406Z,97468.00
2023-02-28T13:52:17.323Z,97475.00
2023-02-28T13:55:21.044Z,97480.00
2023-02-28T13:58:04.510Z,97475.00
2023-02-28T14:01:01.931Z,97478.00
2023-02-28T14:04:08.447Z,97487.00
2023-02-28T14:06:40.636Z,97489.00
2023-02-28T14:09:28.485Z,97487.00
2023-02-28T14:11:55.714Z,97488.00
2023-02-28T14:14:48.958Z,97481.00
2023-02-28T14:17:18.130Z,97492.00
2023-02-28T14:19:49.739Z,97489.00
2023-02-28T14:23:09.868Z,97487.00
2023-02-28T14:26:07.641Z,97492.00
2023-02-28T14:29:16.193Z,97490.00
2023-02-28T14:32:03.478Z,97495.00
2023-02-28T14:34:46.700Z,97495.00
2023-02-28T14:37:38.482Z,97500.00
2023-02-28T14:40:12.790Z,97500.00
2023-02-28T14:42:42.654Z,97517.00
2023-02-28T14:45:21.372Z,97501.00
2023-02-28T14:47:50.546Z,97515.00
2023-02-28T14:50:24.605Z,97502.00
2023-02-28T14:52:58.649Z,97500.00
2023-02-28T14:55:30.310Z,97499.00
2023-02-28T14:58:07.481Z,97498.00
2023-02-28T15:00:38.365Z,97501.00
2023-02-28T15:03:35.262Z,97495.00
2023-02-28T15:06:18.708Z,97491.00
2023-02-28T15:08:46.605Z,97499.00
2023-02-28T15:11:20.131Z,97495.00
2023-02-28T15:13:57.307Z,97501.00
2023-02-28T15:16:29.647Z,97505.00
2023-02-28T15:19:17.127Z,97492.00
2023-02-28T15:21:52.231Z,97505.00
2023-02-28T15:24:42.815Z,97489.00
2023-02-28T15:27:50.574Z,97504.00
2023-02-28T15:30:26.266Z,97495.00
2023-02-28T15:33:07.296Z,97491.00
2023-02-28T15:35:34.590Z,97496.00
2023-02-28T15:38:16.427Z,97493.00
2023-02-28T15:40:50.257Z,97490.00
2023-02-28T15:43:23.700Z,97495.00
2023-02-28T15:46:02.545Z,97497.00
2023-02-28T15:48:35.751Z,97501.00
2023-02-28T15:51:08.309Z,97505.00
2023-02-28T15:53:48.459Z,97511.00
2023-02-28T15:56:38.005Z,97500.00
2023-02-28T15:59:08.264Z,97501.00
2023-02-28T16:01:39.158Z,97503.00
2023-02-28T16:04:14.731Z,97496.00
2023-02-28T16:06:46.639Z,97494.00
2023-02-28T16:09:18.110Z,97502.00
2023-02-28T16:11:50.048Z,97495.00
2023-02-28T16:14:30.981Z,97500.00
2023-02-28T16:17:11.528Z,97501.00
2023-02-28T16:19:38.393Z,97499.00
2023-02-28T16:22:05.123Z,97502.00
2023-02-28T16:24:31.954Z,97505.00
2023-02-28T16:26:59.092Z,97515.00
2023-02-28T16:29:33.512Z,97521.00
2023-02-28T16:32:02.180Z,97516.00
2023-02-28T16:34:29.119Z,97518.00
2023-02-28T16:36:55.922Z,97526.00
2023-02-28T16:39:22.923Z,97531.00
2023-02-28T16:41:51.446Z,97532.00
2023-02-28T16:44:37.368Z,97531.00
2023-02-28T16:47:05.345Z,97537.00
2023-02-28T16:49:32.421Z,97530.00
2023-02-28T16:51:59.452Z,97539.00
2023-02-28T16:54:26.338Z,97530.00
2023-02-28T16:56:53.405Z,97534.00
2023-02-28T16:59:25.056Z,97533.00
2023-02-28T17:01:52.926Z,97538.00
2023-02-28T17:04:19.996Z,97535.00
2023-02-28T17:06:47.010Z,97546.00
2023-02-28T17:09:24.619Z,97545.00
2023-02-28T17:11:57.892Z,97548.00
2023-02-28T17:14:24.765Z,97546.00
2023-02-28T17:16:51.957Z,97543.00
2023-02-28T17:19:19.126Z,97549.00
2023-02-28T17:21:46.606Z,97557.00
2023-02-28T17:24:16.592Z,97548.00
2023-02-28T17:26:46.300Z,97563.00
2023-02-28T17:29:22.049Z,97561.00
2023-02-28T17:31:49.242Z,97566.00
2023-02-28T17:34:19.195Z,97574.00
2023-02-28T17:36:47.455Z,97576.00
2023-02-28T17:39:15.873Z,97578.00
2023-02-28T17:41:43.338Z,97577.00
2023-02-28T17:44:10.514Z,97578.00
2023-02-28T17:46:37.677Z,97579.00
2023-02-28T17:49:04.769Z,97581.00
2023-02-28T17:51:31.577Z,97589.00
2023-02-28T17:53:58.421Z,97589.00
2023-02-28T17:56:26.897Z,97594.00
2023-02-28T17:58:56.790Z,97583.00
2023-02-28T18:01:26.787Z,97579.00
2023-02-28T18:03:55.283Z,97577.00
2023-02-28T18:06:47.648Z,97584.00
2023-02-28T18:09:23.404Z,97579.00
2023-02-28T18:11:55.818Z,97579.00
2023-02-28T18:14:26.264Z,97582.00
2023-02-28T18:16:55.050Z,97588.00
2023-02-28T18:19:22.221Z,97581.00
2023-02-28T18:21:52.485Z,97583.00
2023-02-28T18:24:21.707Z,97581.00
2023-02-28T18:26:48.597Z,97575.00
2023-02-28T18:29:26.064Z,97582.00
2023-02-28T18:31:54.792Z,97583.00
2023-02-28T18:34:23.015Z,97573.00
2023-02-28T18:36:52.067Z,97582.00
2023-02-28T18:39:19.616Z,97578.00
2023-02-28T18:41:46.484Z,97587.00
2023-02-28T18:44:19.897Z,97574.00
2023-02-28T18:46:48.618Z,97580.00
2023-02-28T18:49:15.470Z,97578.00
2023-02-28T18:51:46.349Z,97581.00
2023-02-28T18:54:15.068Z,97570.00
2023-02-28T18:56:42.009Z,97577.00
2023-02-28T18:59:08.835Z,97569.00
2023-02-28T19:01:36.346Z,97578.00
2023-02-28T19:04:04.814Z,97569.00
2023-02-28T19:06:33.005Z,97567.00
2023-02-28T19:09:02.600Z,97567.00
2023-02-28T19:11:29.848Z,97578.00
2023-02-28T19:13:57.523Z,97567.00
2023-02-28T19:16:25.170Z,97570.00
2023-02-28T19:18:52.064Z,97568.00
2023-02-28T19:21:22.365Z,97573.00
2023-02-28T19:23:49.405Z,97581.00
2023-02-28T19:26:22.690Z,97580.00
2023-02-28T19:28:49.652Z,97574.00
2023-02-28T19:31:21.042Z,97581.00
2023-02-28T19:33:47.846Z,97580.00
2023-02-28T19:36:15.613Z,97568.00
2023-02-28T19:38:44.626Z,97568.00
2023-02-28T19:41:13.770Z,97567.00
2023-02-28T19:43:40.969Z,97564.00
2023-02-28T19:46:09.565Z,97577.00
2023-02-28T19:48:36.759Z,97575.00
2023-02-28T19:51:10.570Z,97573.00
2023-02-28T19:53:39.478Z,97575.00
2023-02-28T19:56:08.300Z,97575.00
2023-02-28T19:58:35.672Z,97579.00
2023-02-28T20:01:11.754Z,97577.00
2023-02-28T20:03:38.572Z,97570.00
2023-02-28T20:06:10.327Z,97573.00
2023-02-28T20:08:38.083Z,97572.00
2023-02-28T20:11:12.387Z,97577.00
2023-02-28T20:13:39.596Z,97569.00
2023-02-28T20:16:09.642Z,97563.00
2023-02-28T20:18:40.506Z,97560.00
2023-02-28T20:21:12.156Z,97571.00
2023-02-28T20:23:40.557Z,97563.00
2023-02-28T20:26:08.120Z,97567.00
2023-02-28T20:28:35.033Z,97569.00
2023-02-28T20:31:02.046Z,97568.00
2023-02-28T20:33:28.998Z,97565.00
2023-02-28T20:36:00.574Z,97557.00
2023-02-28T20:38:28.161Z,97550.00
2023-02-28T20:40:56.367Z,97558.00
2023-02-28T20:43:23.945Z,97549.00
2023-02-28T20:45:58.264Z,97561.00
2023-02-28T20:48:25.665Z,97551.00
2023-02-28T20:50:56.111Z,97557.00
2023-02-28T20:53:24.704Z,97560.00
2023-02-28T20:56:04.301Z,97562.00
2023-02-28T20:58:35.591Z,97563.00
2023-02-28T21:01:18.427Z,97559.00
2023-02-28T21:03:51.541Z,97559.00
2023-02-28T21:06:21.274Z,97570.00
2023-02-28T21:08:48.370Z,97570.00
2023-02-28T21:11:28.928Z,97566.00
2023-02-28T21:13:58.962Z,97566.00
2023-02-28T21:16:29.536Z,97561.00
2023-02-28T21:19:03.823Z,97562.00
2023-02-28T21:21:39.607Z,97552.00
2023-02-28T21:24:07.052Z,97546.00
2023-02-28T21:26:33.993Z,97555.00
2023-02-28T21:29:02.483Z,97557.00
2023-02-28T21:31:32.446Z,97547.00
2023-02-28T21:34:01.028Z,97540.00
2023-02-28T21:36:39.518Z,97544.00
2023-02-28T21:39:12.429Z,97551.00
2023-02-28T21:41:39.234Z,97533.00
2023-02-28T21:44:06.054Z,97550.00
2023-02-28T21:46:33.403Z,97544.00
2023-02-28T21:49:00.374Z,97542.00
2023-02-28T21:51:31.155Z,97543.00
2023-02-28T21:53:59.460Z,97551.00
2023-02-28T21:56:30.503Z,97547.00
2023-02-28T21:59:01.368Z,97548.00
2023-02-28T22:01:32.044Z,97557.00
2023-02-28T22:03:59.674Z,97548.00
2023-02-28T22:06:30.270Z,97548.00
2023-02-28T22:08:59.517Z,97564.00
2023-02-28T22:11:26.975Z,97546.00
2023-02-28T22:13:56.044Z,97542.00
2023-02-28T22:16:26.600Z,97549.00
2023-02-28T22:18:54.979Z,97547.00
2023-02-28T22:21:23.061Z,97552.00
2023-02-28T22:23:50.454Z,97547.00
2023-02-28T22:26:20.551Z,97537.00
2023-02-28T22:28:48.019Z,97537.00
2023-02-28T22:31:29.570Z,97544.00
2023-02-28T22:33:58.848Z,97542.00
2023-02-28T22:36:26.355Z,97534.00
2023-02-28T22:38:54.001Z,97536.00
2023-02-28T22:41:22.777Z,97543.00
2023-02-28T22:43:56.228Z,97539.00
2023-02-28T22:46:24.959Z,97537.00
2023-02-28T22:48:52.049Z,97535.00
2023-02-28T22:51:25.291Z,97540.00
2023-02-28T22:53:54.109Z,97539.00
2023-02-28T22:56:23.426Z,97538.00
2023-02-28T22:58:53.069Z,97539.00
2023-02-28T23:01:22.115Z,97538.00
2023-02-28T23:03:49.540Z,97539.00
2023-02-28T23:06:27.986Z,97538.00
2023-02-28T23:08:59.666Z,97533.00
2023-02-28T23:11:29.921Z,97533.00
2023-02-28T23:14:00.495Z,97522.00
2023-02-28T23:16:47.434Z,97533.00
2023-02-28T23:19:18.550Z,97531.00
2023-02-28T23:21:45.996Z,97533.00
2023-02-28T23:24:15.389Z,97540.00
2023-02-28T23:26:47.742Z,97533.00
2023-02-28T23:29:17.611Z,97534.00
2023-02-28T23:31:45.266Z,97541.00
2023-02-28T23:34:12.909Z,97534.00
2023-02-28T23:36:46.056Z,97544.00
2023-02-28T23:39:16.883Z,97538.00
2023-02-28T23:41:43.786Z,97536.00
2023-02-28T23:44:13.635Z,97538.00
2023-02-28T23:46:40.655Z,97533.00
2023-02-28T23:49:07.428Z,97524.00
2023-02-28T23:51:34.201Z,97530.00
2023-02-28T23:54:02.950Z,97531.00
2023-02-28T23:56:33.019Z,97533.00
2023-02-28T23:59:00.419Z,97531.00
